createdAt,value
2016-03-24T16:03:56.452Z,1005.76
2016-03-24T16:04:56.141Z,1005.79
2016-03-24T16:05:56.035Z,1005.84
2016-03-24T16:06:56.021Z,1005.83
2016-03-24T16:07:55.993Z,1005.82
2016-03-24T16:08:55.985Z,1005.84
2016-03-24T16:09:55.941Z,1005.86
2016-03-24T16:10:56.178Z,1005.84
2016-03-24T16:11:56.024Z,1005.86
2016-03-24T16:12:56.137Z,1005.81
2016-03-24T16:13:56.218Z,1005.93
2016-03-24T16:14:55.970Z,1005.83
2016-03-24T16:15:55.801Z,1005.86
2016-03-24T16:16:55.772Z,1005.83
2016-03-24T16:17:55.743Z,1005.81
2016-03-24T16:18:55.731Z,1005.86
2016-03-24T16:19:55.687Z,1005.85
2016-03-24T16:20:55.705Z,1005.84
2016-03-24T16:21:55.879Z,1005.86
2016-03-24T16:22:55.616Z,1005.85
2016-03-24T16:23:55.619Z,1005.86
2016-03-24T16:24:55.575Z,1005.85
2016-03-24T16:25:55.547Z,1005.9
2016-03-24T16:26:55.517Z,1005.87
2016-03-24T16:27:55.552Z,1005.9
2016-03-24T16:28:55.477Z,1005.9
2016-03-24T16:29:55.447Z,1005.92
2016-03-24T16:30:55.435Z,1005.93
2016-03-24T16:31:55.391Z,1005.9
2016-03-24T16:32:55.362Z,1005.88
2016-03-24T16:33:55.365Z,1005.89
2016-03-24T16:34:55.321Z,1005.84
2016-03-24T16:35:55.338Z,1005.84
2016-03-24T16:36:55.435Z,1005.85
2016-03-24T16:37:55.235Z,1005.84
2016-03-24T16:38:55.222Z,1005.88
2016-03-24T16:39:55.257Z,1005.87
2016-03-24T16:40:55.180Z,1005.87
2016-03-24T16:41:55.151Z,1005.84
2016-03-24T16:42:55.154Z,1005.8
2016-03-24T16:43:55.142Z,1005.81
2016-03-24T16:44:55.082Z,1005.82
2016-03-24T16:45:55.054Z,1005.82
2016-03-24T16:47:55.042Z,1005.79
2016-03-24T16:48:54.983Z,1005.78
2016-03-24T16:49:54.971Z,1005.75
2016-03-24T16:50:54.942Z,1005.75
2016-03-24T16:51:54.975Z,1005.79
2016-03-24T16:52:54.884Z,1005.76
2016-03-24T16:53:54.964Z,1005.75
2016-03-24T16:54:54.828Z,1005.75
2016-03-24T16:56:54.817Z,1005.72
2016-03-24T16:57:54.789Z,1005.7
2016-03-24T16:58:54.744Z,1005.75
2016-03-24T16:59:54.700Z,1005.72
2016-03-24T17:00:54.688Z,1005.7
2016-03-24T17:01:54.675Z,1005.7
2016-03-24T17:02:54.646Z,1005.69
2016-03-24T17:03:54.616Z,1005.72
2016-03-24T17:05:54.576Z,1005.7
2016-03-24T17:06:54.594Z,1005.69
2016-03-24T17:07:54.501Z,1005.69
2016-03-24T17:08:54.489Z,1005.67
2016-03-24T17:09:54.476Z,1005.67
2016-03-24T17:10:54.464Z,1005.71
2016-03-24T17:11:54.434Z,1005.67
2016-03-24T17:12:54.390Z,1005.66
2016-03-24T17:13:54.378Z,1005.62
2016-03-24T17:14:54.365Z,1005.67
2016-03-24T17:15:54.320Z,1005.67
2016-03-24T17:16:54.339Z,1005.66
2016-03-24T17:17:54.278Z,1005.64
2016-03-24T17:18:54.344Z,1005.67
2016-03-24T17:19:54.441Z,1005.66
2016-03-24T17:20:54.194Z,1005.66
2016-03-24T17:21:54.164Z,1005.63
2016-03-24T17:22:54.136Z,1005.67
2016-03-24T17:23:54.170Z,1005.7
2016-03-24T17:24:54.454Z,1005.67
2016-03-24T17:25:54.097Z,1005.67
2016-03-24T17:26:54.053Z,1005.67
2016-03-24T17:27:54.024Z,1005.7
2016-03-24T17:28:54.012Z,1005.7
2016-03-24T17:29:53.968Z,1005.7
2016-03-24T17:30:53.954Z,1005.68
2016-03-24T17:31:53.957Z,1005.65
2016-03-24T17:32:53.913Z,1005.72
2016-03-24T17:33:53.868Z,1005.71
2016-03-24T17:34:53.918Z,1005.7
2016-03-24T17:35:53.827Z,1005.71
2016-03-24T17:36:53.798Z,1005.7
2016-03-24T17:37:53.770Z,1005.72
2016-03-24T17:38:53.773Z,1005.75
2016-03-24T17:39:53.745Z,1005.72
2016-03-24T17:40:53.709Z,1005.71
2016-03-24T17:41:53.653Z,1005.69
2016-03-24T17:42:53.737Z,1005.74
2016-03-24T17:43:53.587Z,1005.76
2016-03-24T17:44:53.562Z,1005.79
2016-03-24T17:45:53.509Z,1005.8
2016-03-24T17:46:53.493Z,1005.81
2016-03-24T17:47:53.505Z,1005.8
2016-03-24T17:48:53.426Z,1005.83
2016-03-24T17:49:53.407Z,1005.79
2016-03-24T17:50:53.360Z,1005.82
2016-03-24T17:51:53.346Z,1005.82
2016-03-24T17:52:53.676Z,1005.82
2016-03-24T17:53:53.317Z,1005.83
2016-03-24T17:54:53.255Z,1005.83
2016-03-24T17:55:53.257Z,1005.77
2016-03-24T17:56:53.212Z,1005.8
2016-03-24T17:57:53.199Z,1005.82
2016-03-24T17:58:53.185Z,1005.79
2016-03-24T17:59:53.140Z,1005.83
2016-03-24T18:00:53.283Z,1005.84
2016-03-24T18:01:53.083Z,1005.84
2016-03-24T18:02:53.132Z,1005.82
2016-03-24T18:03:53.041Z,1005.84
2016-03-24T18:04:53.013Z,1005.78
2016-03-24T18:05:52.984Z,1005.79
2016-03-24T18:06:52.971Z,1005.78
2016-03-24T18:07:52.942Z,1005.75
2016-03-24T18:08:52.914Z,1005.79
2016-03-24T18:09:52.885Z,1005.78
2016-03-24T18:10:52.872Z,1005.76
2016-03-24T18:11:52.843Z,1005.71
2016-03-24T18:12:52.925Z,1005.72
2016-03-24T18:13:52.818Z,1005.73
2016-03-24T18:14:52.757Z,1005.74
2016-03-24T18:15:52.746Z,1005.77
2016-03-24T18:16:52.732Z,1005.79
2016-03-24T18:17:52.687Z,1005.82
2016-03-24T18:18:52.893Z,1005.83
2016-03-24T18:19:52.646Z,1005.83
2016-03-24T18:20:52.601Z,1005.83
2016-03-24T18:21:52.698Z,1005.88
2016-03-24T18:22:52.654Z,1005.86
2016-03-24T18:23:52.548Z,1005.86
2016-03-24T18:24:52.785Z,1005.86
2016-03-24T18:25:52.507Z,1005.9
2016-03-24T18:26:52.478Z,1005.88
2016-03-24T18:27:52.449Z,1005.86
2016-03-24T18:28:52.421Z,1005.87
2016-03-24T18:29:52.392Z,1005.86
2016-03-24T18:30:52.363Z,1005.82
2016-03-24T18:31:52.350Z,1005.88
2016-03-24T18:32:52.682Z,1005.87
2016-03-24T18:33:52.387Z,1005.87
2016-03-24T18:34:52.280Z,1005.88
2016-03-24T18:35:52.377Z,1005.89
2016-03-24T18:36:52.224Z,1005.92
2016-03-24T18:37:52.272Z,1005.94
2016-03-24T18:38:52.322Z,1005.9
2016-03-24T18:39:52.216Z,1005.88
2016-03-24T18:40:52.141Z,1005.91
2016-03-24T18:41:52.283Z,1005.9
2016-03-24T18:42:52.427Z,1005.91
2016-03-24T18:43:52.086Z,1005.89
2016-03-24T18:44:52.230Z,1005.92
2016-03-24T18:45:52.419Z,1005.87
2016-03-24T18:46:52.001Z,1005.89
2016-03-24T18:47:52.019Z,1005.9
2016-03-24T18:48:51.959Z,1005.87
2016-03-24T18:49:51.915Z,1005.87
2016-03-24T18:50:51.886Z,1005.85
2016-03-24T18:51:51.857Z,1005.85
2016-03-24T18:52:51.829Z,1005.84
2016-03-24T18:53:51.801Z,1005.82
2016-03-24T18:54:51.773Z,1005.79
2016-03-24T18:55:51.915Z,1005.92
2016-03-24T18:56:51.731Z,1005.9
2016-03-24T18:57:51.733Z,1005.92
2016-03-24T18:58:51.673Z,1005.9
2016-03-24T18:59:51.723Z,1005.9
2016-03-24T19:00:51.617Z,1005.92
2016-03-24T19:01:51.604Z,1005.92
2016-03-24T19:02:51.684Z,1005.96
2016-03-24T19:03:51.875Z,1005.94
2016-03-24T19:04:51.533Z,1005.97
2016-03-24T19:05:51.552Z,1005.97
2016-03-24T19:06:51.475Z,1005.94
2016-03-24T19:07:51.447Z,1005.96
2016-03-24T19:08:51.419Z,1005.94
2016-03-24T19:09:51.499Z,1005.91
2016-03-24T19:10:51.394Z,1005.88
2016-03-24T19:11:51.364Z,1005.89
2016-03-24T19:12:51.351Z,1005.89
2016-03-24T19:13:51.324Z,1005.87
2016-03-24T19:14:51.279Z,1005.93
2016-03-24T19:15:51.266Z,1005.84
2016-03-24T19:16:51.237Z,1005.86
2016-03-24T19:17:51.302Z,1005.86
2016-03-24T19:18:51.212Z,1005.86
2016-03-24T19:19:51.167Z,1005.89
2016-03-24T19:20:51.154Z,1005.88
2016-03-24T19:21:51.110Z,1005.85
2016-03-24T19:22:51.207Z,1005.87
2016-03-24T19:23:51.084Z,1005.87
2016-03-24T19:24:51.071Z,1005.84
2016-03-24T19:25:51.031Z,1005.85
2016-03-24T19:26:50.987Z,1005.85
2016-03-24T19:27:50.974Z,1005.82
2016-03-24T19:28:51.179Z,1005.83
2016-03-24T19:29:50.917Z,1005.83
2016-03-24T19:30:50.873Z,1005.83
2016-03-24T19:31:50.875Z,1005.82
2016-03-24T19:32:50.847Z,1005.82
2016-03-24T19:33:50.818Z,1005.84
2016-03-24T19:34:50.789Z,1005.84
2016-03-24T19:35:50.824Z,1005.86
2016-03-24T19:36:50.733Z,1005.83
2016-03-24T19:37:50.798Z,1005.81
2016-03-24T19:38:50.690Z,1005.79
2016-03-24T19:39:50.662Z,1005.78
2016-03-24T19:40:50.634Z,1005.76
2016-03-24T19:41:50.620Z,1005.83
2016-03-24T19:42:51.280Z,1005.78
2016-03-24T19:43:50.642Z,1005.8
2016-03-24T19:44:50.629Z,1005.82
2016-03-24T19:45:50.506Z,1005.76
2016-03-24T19:46:50.759Z,1005.78
2016-03-24T19:47:50.481Z,1005.79
2016-03-24T19:48:50.874Z,1005.8
2016-03-24T19:49:50.470Z,1005.79
2016-03-24T19:50:50.505Z,1005.82
2016-03-24T19:51:50.398Z,1005.81
2016-03-24T19:52:50.353Z,1005.82
2016-03-24T19:53:50.324Z,1005.8
2016-03-24T19:54:50.297Z,1005.84
2016-03-24T19:55:50.268Z,1005.8
2016-03-24T19:56:50.238Z,1005.79
2016-03-24T19:57:50.227Z,1005.8
2016-03-24T19:58:50.198Z,1005.84
2016-03-24T19:59:50.169Z,1005.85
2016-03-24T20:00:50.156Z,1005.85
2016-03-24T20:01:50.128Z,1005.85
2016-03-24T20:02:50.084Z,1005.85
2016-03-24T20:03:50.119Z,1005.83
2016-03-24T20:04:53.340Z,1005.83
2016-03-24T20:05:50.014Z,1005.8
2016-03-24T20:06:50.017Z,1005.79
2016-03-24T20:07:49.972Z,1005.74
2016-03-24T20:08:49.960Z,1005.78
2016-03-24T20:09:49.916Z,1005.81
2016-03-24T20:10:49.980Z,1005.73
2016-03-24T20:11:49.984Z,1005.74
2016-03-24T20:12:49.846Z,1005.76
2016-03-24T20:13:49.848Z,1005.78
2016-03-24T20:14:50.586Z,1005.75
2016-03-24T20:15:50.088Z,1005.75
2016-03-24T20:16:49.746Z,1005.75
2016-03-24T20:17:49.735Z,1005.76
2016-03-24T20:18:49.691Z,1005.74
2016-03-24T20:19:50.193Z,1005.71
2016-03-24T20:20:50.179Z,1005.75
2016-03-24T20:21:49.636Z,1005.77
2016-03-24T20:22:49.638Z,1005.76
2016-03-24T20:23:49.578Z,1005.71
2016-03-24T20:24:49.550Z,1005.75
2016-03-24T20:25:49.615Z,1005.72
2016-03-24T20:26:49.509Z,1005.73
2016-03-24T20:27:49.495Z,1005.72
2016-03-24T20:28:49.576Z,1005.7
2016-03-24T20:29:49.422Z,1005.69
2016-03-24T20:30:49.394Z,1005.7
2016-03-24T20:31:49.397Z,1005.69
2016-03-24T20:32:49.353Z,1005.7
2016-03-24T20:33:49.324Z,1005.69
2016-03-24T20:34:49.301Z,1005.7
2016-03-24T20:35:49.304Z,1005.65
2016-03-24T20:36:49.275Z,1005.67
2016-03-24T20:37:49.559Z,1005.63
2016-03-24T20:38:49.219Z,1005.62
2016-03-24T20:39:49.175Z,1005.6
2016-03-24T20:40:49.161Z,1005.64
2016-03-24T20:41:49.133Z,1005.57
2016-03-24T20:42:49.105Z,1005.59
2016-03-24T20:43:49.122Z,1005.57
2016-03-24T20:44:49.063Z,1005.61
2016-03-24T20:45:49.050Z,1005.62
2016-03-24T20:46:49.006Z,1005.6
2016-03-24T20:47:48.977Z,1005.56
2016-03-24T20:48:48.963Z,1005.56
2016-03-24T20:49:48.952Z,1005.55
2016-03-24T20:50:48.922Z,1005.59
2016-03-24T20:51:48.878Z,1005.52
2016-03-24T20:52:48.866Z,1005.57
2016-03-24T20:53:48.868Z,1005.55
2016-03-24T20:54:48.808Z,1005.55
2016-03-24T20:55:48.780Z,1005.55
2016-03-24T20:56:48.829Z,1005.54
2016-03-24T20:57:48.723Z,1005.57
2016-03-24T20:58:48.710Z,1005.53
2016-03-24T20:59:48.712Z,1005.52
2016-03-24T21:00:51.684Z,1005.5
2016-03-24T21:01:48.624Z,1005.51
2016-03-24T21:02:48.627Z,1005.47
2016-03-24T21:03:48.895Z,1005.47
2016-03-24T21:04:48.616Z,1005.41
2016-03-24T21:05:48.526Z,1005.42
2016-03-24T21:06:48.731Z,1005.46
2016-03-24T21:07:48.489Z,1005.47
2016-03-24T21:08:48.476Z,1005.44
2016-03-24T21:09:48.431Z,1005.45
2016-03-24T21:10:48.403Z,1005.42
2016-03-24T21:11:49.187Z,1005.5
2016-03-24T21:12:48.361Z,1005.49
2016-03-24T21:13:48.349Z,1005.48
2016-03-24T21:14:48.324Z,1005.5
2016-03-24T21:15:48.281Z,1005.49
2016-03-24T21:16:48.393Z,1005.49
2016-03-24T21:17:48.239Z,1005.42
2016-03-24T21:18:48.211Z,1005.51
2016-03-24T21:19:48.198Z,1005.52
2016-03-24T21:20:48.232Z,1005.48
2016-03-24T21:21:48.407Z,1005.51
2016-03-24T21:22:48.128Z,1005.51
2016-03-24T21:23:48.084Z,1005.49
2016-03-24T21:24:48.165Z,1005.5
2016-03-24T21:25:48.042Z,1005.46
2016-03-24T21:26:48.014Z,1005.43
2016-03-24T21:27:48.016Z,1005.36
2016-03-24T21:28:47.973Z,1005.4
2016-03-24T21:29:48.382Z,1005.42
2016-03-24T21:30:47.915Z,1005.39
2016-03-24T21:31:47.996Z,1005.38
2016-03-24T21:32:47.874Z,1005.4
2016-03-24T21:33:47.845Z,1005.37
2016-03-24T21:34:47.818Z,1005.39
2016-03-24T21:35:47.804Z,1005.4
2016-03-24T21:36:47.760Z,1005.37
2016-03-24T21:37:47.748Z,1005.35
2016-03-24T21:38:47.718Z,1005.38
2016-03-24T21:39:47.690Z,1005.32
2016-03-24T21:40:47.662Z,1005.34
2016-03-24T21:41:47.633Z,1005.31
2016-03-24T21:42:47.667Z,1005.35
2016-03-24T21:43:47.591Z,1005.32
2016-03-24T21:44:47.579Z,1005.27
2016-03-24T21:45:47.534Z,1005.26
2016-03-24T21:46:47.536Z,1005.23
2016-03-24T21:47:47.478Z,1005.19
2016-03-24T21:48:47.495Z,1005.23
2016-03-24T21:49:47.435Z,1005.2
2016-03-24T21:50:47.423Z,1005.17
2016-03-24T21:51:47.410Z,1005.17
2016-03-24T21:52:47.460Z,1005.18
2016-03-24T21:53:47.478Z,1005.13
2016-03-24T21:54:47.324Z,1005.18
2016-03-24T21:55:47.421Z,1005.19
2016-03-24T21:56:47.267Z,1005.17
2016-03-24T21:57:47.238Z,1005.18
2016-03-24T21:58:47.448Z,1005.15
2016-03-24T21:59:47.466Z,1005.2
2016-03-24T22:00:47.204Z,1005.18
2016-03-24T22:01:47.191Z,1005.19
2016-03-24T22:02:47.364Z,1005.16
2016-03-24T22:03:47.087Z,1005.17
2016-03-24T22:04:47.105Z,1005.16
2016-03-24T22:05:47.077Z,1005.17
2016-03-24T22:06:47.095Z,1005.24
2016-03-24T22:07:47.035Z,1005.22
2016-03-24T22:08:47.350Z,1005.23
2016-03-24T22:09:46.931Z,1005.24
2016-03-24T22:10:46.996Z,1005.22
2016-03-24T22:11:47.030Z,1005.24
2016-03-24T22:12:48.126Z,1005.22
2016-03-24T22:13:46.864Z,1005.22
2016-03-24T22:14:46.882Z,1005.22
2016-03-24T22:15:46.837Z,1005.25
2016-03-24T22:17:47.077Z,1005.17
2016-03-24T22:18:46.767Z,1005.23
2016-03-24T22:19:46.802Z,1005.18
2016-03-24T22:20:46.976Z,1005.23
2016-03-24T22:21:46.791Z,1005.2
2016-03-24T22:22:46.888Z,1005.23
2016-03-24T22:32:09.834Z,1005.23
2016-03-24T22:33:05.369Z,1005.22
2016-03-24T22:34:05.387Z,1005.22
2016-03-24T22:35:05.405Z,1005.21
2016-03-24T22:36:05.440Z,1005.17
2016-03-24T22:37:05.286Z,1005.2
2016-03-24T22:38:05.335Z,1005.22
2016-03-24T22:39:18.823Z,1005.16
2016-03-24T22:42:13.128Z,1005.12
2016-03-24T22:43:12.708Z,1005.15
2016-03-24T22:44:12.539Z,1005.16
2016-03-24T22:45:12.636Z,1005.13
2016-03-24T22:46:12.670Z,1005.13
2016-03-24T22:47:12.453Z,1005.11
2016-03-24T22:48:12.486Z,1005.11
2016-03-24T22:49:12.490Z,1005.09
2016-03-24T22:50:15.539Z,1005.12
2016-03-24T22:51:12.416Z,1005.07
2016-03-24T22:52:12.467Z,1005.1
2016-03-24T22:53:12.344Z,1005.09
2016-03-24T22:54:12.269Z,1005.08
2016-03-24T22:55:12.350Z,1005.08
2016-03-24T22:56:12.258Z,1005.08
2016-03-24T22:57:12.543Z,1005.05
2016-03-24T22:58:12.374Z,1005.09
2016-03-24T22:59:12.220Z,1005.06
2016-03-24T23:00:12.223Z,1005.08
2016-03-24T23:01:12.179Z,1005
2016-03-24T23:02:12.479Z,1005.08
2016-03-24T23:03:12.059Z,1005.04
2016-03-24T23:05:12.065Z,1005.1
2016-03-24T23:06:12.051Z,1005.07
2016-03-24T23:07:12.553Z,1005.06
2016-03-24T23:08:12.010Z,1005.08
2016-03-24T23:09:11.918Z,1005.06
2016-03-24T23:10:11.890Z,1005.05
2016-03-24T23:11:11.956Z,1005.06
2016-03-24T23:12:11.942Z,1005.06
2016-03-24T23:13:11.820Z,1005.09
2016-03-24T23:14:11.901Z,1005.1
2016-03-24T23:15:11.856Z,1005.1
2016-03-24T23:16:11.750Z,1005.12
2016-03-24T23:17:11.769Z,1005.12
2016-03-24T23:18:11.709Z,1005.14
2016-03-24T23:19:12.102Z,1005.11
2016-03-24T23:20:11.619Z,1005.14
2016-03-24T23:21:11.748Z,1005.14
2016-03-24T23:22:11.735Z,1005.1
2016-03-24T23:23:11.612Z,1005.09
2016-03-24T23:24:11.756Z,1005.09
2016-03-24T23:25:11.493Z,1005.1
2016-03-24T23:26:11.933Z,1005.11
2016-03-24T23:27:11.467Z,1005.09
2016-03-24T23:28:11.516Z,1005.1
2016-03-24T23:30:45.477Z,1005.09
2016-03-24T23:31:45.137Z,1005.09
2016-03-24T23:32:45.140Z,1005.06
2016-03-24T23:33:45.018Z,1005.04
2016-03-24T23:34:45.145Z,1005.07
2016-03-24T23:35:45.037Z,1005.07
2016-03-24T23:36:45.166Z,1005.05
2016-03-24T23:37:45.262Z,1005.04
2016-03-24T23:38:44.889Z,1005.03
2016-03-24T23:39:45.190Z,1005.04
2016-03-24T23:40:44.864Z,1005.06
2016-03-24T23:41:44.915Z,1005.04
2016-03-24T23:42:44.840Z,1005.07
2016-03-24T23:43:44.935Z,1005.09
2016-03-24T23:44:44.782Z,1005.07
2016-03-24T23:45:44.816Z,1005.1
2016-03-24T23:46:44.756Z,1005.08
2016-03-24T23:47:44.884Z,1005.05
2016-03-24T23:48:44.731Z,1005.08
2016-03-24T23:49:44.765Z,1005.12
2016-03-24T23:55:10.887Z,1004.99
2016-03-24T23:56:10.281Z,1004.99
2016-03-24T23:57:10.330Z,1004.94
